X  Close Metar Aviation Weather Data     KDZJ Blairsville Airport
Temperature
45°F Temperature
45°F Dewpoint
100% Humidity



Wind
0 MPH
0 KM/H
0 M/S
0 KTS



Calm
North
Current Conditions

Mist Mist
Pressure 1021.72 (hPa) - 30.17 (inHg)
Visibility 0 (mile) - 0 (km)
Airport
Airport-code KDZJ

Location: Blairsville Airport
Distance: 18 (mi)

Metar:
KDZJ 050455Z AUTO 00000KT 1 1/4SM BR VV007 07/07 A3017 RMK AO2 VIS 1/2V2 1/2 T00680067

Time: 12-04-2021 23:55 EST